sensor_id;sensor_type;location;lat;lon;timestamp;temperature;humidity
75430;DHT22;64127;51.488;5.462;2023-03-03T00:00:55;5.50;93.70
75430;DHT22;64127;51.488;5.462;2023-03-03T00:03:27;5.60;93.80
75430;DHT22;64127;51.488;5.462;2023-03-03T00:05:59;5.50;93.90
75430;DHT22;64127;51.488;5.462;2023-03-03T00:08:33;5.50;94.00
75430;DHT22;64127;51.488;5.462;2023-03-03T00:11:06;5.50;94.10
75430;DHT22;64127;51.488;5.462;2023-03-03T00:13:50;5.40;94.20
75430;DHT22;64127;51.488;5.462;2023-03-03T00:16:30;5.40;94.40
75430;DHT22;64127;51.488;5.462;2023-03-03T00:19:16;5.40;94.40
75430;DHT22;64127;51.488;5.462;2023-03-03T00:21:50;5.40;94.40
75430;DHT22;64127;51.488;5.462;2023-03-03T00:27:23;5.30;94.40
75430;DHT22;64127;51.488;5.462;2023-03-03T00:30:02;5.30;94.70
75430;DHT22;64127;51.488;5.462;2023-03-03T00:32:47;5.30;94.70
75430;DHT22;64127;51.488;5.462;2023-03-03T00:35:29;5.30;94.70
75430;DHT22;64127;51.488;5.462;2023-03-03T00:38:18;5.20;94.70
75430;DHT22;64127;51.488;5.462;2023-03-03T00:40:51;5.30;95.00
75430;DHT22;64127;51.488;5.462;2023-03-03T00:43:25;5.20;95.10
75430;DHT22;64127;51.488;5.462;2023-03-03T00:46:07;5.20;95.20
75430;DHT22;64127;51.488;5.462;2023-03-03T00:48:42;5.20;95.40
75430;DHT22;64127;51.488;5.462;2023-03-03T00:51:30;5.20;95.60
75430;DHT22;64127;51.488;5.462;2023-03-03T00:54:04;5.10;95.80
75430;DHT22;64127;51.488;5.462;2023-03-03T00:56:36;5.10;95.80
75430;DHT22;64127;51.488;5.462;2023-03-03T00:59:09;5.20;96.00
75430;DHT22;64127;51.488;5.462;2023-03-03T01:01:41;5.10;96.10
75430;DHT22;64127;51.488;5.462;2023-03-03T01:04:13;5.20;96.20
75430;DHT22;64127;51.488;5.462;2023-03-03T01:06:45;5.10;96.30
75430;DHT22;64127;51.488;5.462;2023-03-03T01:09:18;5.20;96.40
75430;DHT22;64127;51.488;5.462;2023-03-03T01:11:50;5.20;96.50
75430;DHT22;64127;51.488;5.462;2023-03-03T01:14:23;5.10;96.50
75430;DHT22;64127;51.488;5.462;2023-03-03T01:16:55;5.10;96.70
75430;DHT22;64127;51.488;5.462;2023-03-03T01:19:27;5.10;96.80
75430;DHT22;64127;51.488;5.462;2023-03-03T01:21:59;5.10;96.90
75430;DHT22;64127;51.488;5.462;2023-03-03T01:24:32;5.00;97.20
75430;DHT22;64127;51.488;5.462;2023-03-03T01:27:04;5.00;96.90
75430;DHT22;64127;51.488;5.462;2023-03-03T01:29:36;5.00;97.00
75430;DHT22;64127;51.488;5.462;2023-03-03T01:32:08;4.90;97.00
75430;DHT22;64127;51.488;5.462;2023-03-03T01:34:40;4.90;97.20
75430;DHT22;64127;51.488;5.462;2023-03-03T01:37:12;4.80;97.30
75430;DHT22;64127;51.488;5.462;2023-03-03T01:39:48;4.80;97.50
75430;DHT22;64127;51.488;5.462;2023-03-03T01:42:23;4.80;97.50
75430;DHT22;64127;51.488;5.462;2023-03-03T01:45:22;4.70;97.50
75430;DHT22;64127;51.488;5.462;2023-03-03T01:51:04;4.70;97.70
75430;DHT22;64127;51.488;5.462;2023-03-03T01:53:52;4.70;97.70
75430;DHT22;64127;51.488;5.462;2023-03-03T01:56:27;4.70;97.70
75430;DHT22;64127;51.488;5.462;2023-03-03T01:59:08;4.70;97.70
75430;DHT22;64127;51.488;5.462;2023-03-03T02:01:48;4.70;97.80
75430;DHT22;64127;51.488;5.462;2023-03-03T02:04:21;4.80;97.70
75430;DHT22;64127;51.488;5.462;2023-03-03T02:07:00;4.80;97.80
75430;DHT22;64127;51.488;5.462;2023-03-03T02:13:12;4.80;97.80
75430;DHT22;64127;51.488;5.462;2023-03-03T02:15:32;4.80;97.70
75430;DHT22;64127;51.488;5.462;2023-03-03T02:18:12;4.70;97.70
75430;DHT22;64127;51.488;5.462;2023-03-03T02:26:33;4.60;98.00
75430;DHT22;64127;51.488;5.462;2023-03-03T02:29:08;4.50;97.90
75430;DHT22;64127;51.488;5.462;2023-03-03T02:31:41;4.60;98.00
75430;DHT22;64127;51.488;5.462;2023-03-03T02:34:14;4.60;98.00
75430;DHT22;64127;51.488;5.462;2023-03-03T02:36:46;4.60;98.10
75430;DHT22;64127;51.488;5.462;2023-03-03T02:39:23;4.60;98.10
75430;DHT22;64127;51.488;5.462;2023-03-03T02:44:57;4.50;98.00
75430;DHT22;64127;51.488;5.462;2023-03-03T02:47:29;4.50;98.00
75430;DHT22;64127;51.488;5.462;2023-03-03T02:50:01;4.40;98.00
75430;DHT22;64127;51.488;5.462;2023-03-03T02:52:33;4.40;98.10
75430;DHT22;64127;51.488;5.462;2023-03-03T02:55:05;4.40;98.20
75430;DHT22;64127;51.488;5.462;2023-03-03T02:57:38;4.50;98.20
75430;DHT22;64127;51.488;5.462;2023-03-03T03:00:10;4.50;98.20
75430;DHT22;64127;51.488;5.462;2023-03-03T03:02:43;4.50;98.20
75430;DHT22;64127;51.488;5.462;2023-03-03T03:05:15;4.40;98.20
75430;DHT22;64127;51.488;5.462;2023-03-03T03:07:46;4.40;98.20
75430;DHT22;64127;51.488;5.462;2023-03-03T03:10:18;4.40;98.30
75430;DHT22;64127;51.488;5.462;2023-03-03T03:12:51;4.30;98.30
75430;DHT22;64127;51.488;5.462;2023-03-03T03:15:23;4.40;98.40
75430;DHT22;64127;51.488;5.462;2023-03-03T03:17:55;4.40;98.40
75430;DHT22;64127;51.488;5.462;2023-03-03T03:20:27;4.40;98.50
75430;DHT22;64127;51.488;5.462;2023-03-03T03:22:59;4.40;98.50
75430;DHT22;64127;51.488;5.462;2023-03-03T03:25:31;4.40;98.60
75430;DHT22;64127;51.488;5.462;2023-03-03T03:28:03;4.40;98.60
75430;DHT22;64127;51.488;5.462;2023-03-03T03:30:35;4.40;98.70
75430;DHT22;64127;51.488;5.462;2023-03-03T03:33:07;4.40;98.80
75430;DHT22;64127;51.488;5.462;2023-03-03T03:35:39;4.30;98.70
75430;DHT22;64127;51.488;5.462;2023-03-03T03:38:16;4.30;98.70
75430;DHT22;64127;51.488;5.462;2023-03-03T03:40:48;4.30;98.70
75430;DHT22;64127;51.488;5.462;2023-03-03T03:43:20;4.30;98.90
75430;DHT22;64127;51.488;5.462;2023-03-03T03:45:52;4.30;99.00
75430;DHT22;64127;51.488;5.462;2023-03-03T03:48:25;4.40;99.00
75430;DHT22;64127;51.488;5.462;2023-03-03T03:50:57;4.40;99.50
75430;DHT22;64127;51.488;5.462;2023-03-03T03:53:30;4.40;99.10
75430;DHT22;64127;51.488;5.462;2023-03-03T03:56:02;4.40;99.10
75430;DHT22;64127;51.488;5.462;2023-03-03T03:58:34;4.20;99.10
75430;DHT22;64127;51.488;5.462;2023-03-03T04:01:07;4.20;99.20
75430;DHT22;64127;51.488;5.462;2023-03-03T04:03:39;4.10;99.20
75430;DHT22;64127;51.488;5.462;2023-03-03T04:06:11;4.10;99.40
75430;DHT22;64127;51.488;5.462;2023-03-03T04:08:43;4.00;99.50
75430;DHT22;64127;51.488;5.462;2023-03-03T04:11:15;4.00;99.60
75430;DHT22;64127;51.488;5.462;2023-03-03T04:13:47;4.00;99.80
75430;DHT22;64127;51.488;5.462;2023-03-03T04:16:19;4.00;99.80
75430;DHT22;64127;51.488;5.462;2023-03-03T04:18:51;4.00;99.90
75430;DHT22;64127;51.488;5.462;2023-03-03T04:21:23;4.00;99.90
75430;DHT22;64127;51.488;5.462;2023-03-03T04:23:55;4.00;99.90
75430;DHT22;64127;51.488;5.462;2023-03-03T04:26:27;4.00;99.90
75430;DHT22;64127;51.488;5.462;2023-03-03T04:28:59;4.00;99.90
75430;DHT22;64127;51.488;5.462;2023-03-03T04:31:32;4.00;99.90
75430;DHT22;64127;51.488;5.462;2023-03-03T04:34:04;4.00;99.90
75430;DHT22;64127;51.488;5.462;2023-03-03T04:36:36;4.00;99.90
75430;DHT22;64127;51.488;5.462;2023-03-03T04:39:08;4.00;99.90
75430;DHT22;64127;51.488;5.462;2023-03-03T04:41:40;4.00;99.90
75430;DHT22;64127;51.488;5.462;2023-03-03T04:44:12;4.00;99.90
75430;DHT22;64127;51.488;5.462;2023-03-03T04:46:44;3.90;99.90
75430;DHT22;64127;51.488;5.462;2023-03-03T04:49:16;3.90;99.90
75430;DHT22;64127;51.488;5.462;2023-03-03T04:51:48;3.90;99.90
75430;DHT22;64127;51.488;5.462;2023-03-03T04:54:20;3.80;99.90
75430;DHT22;64127;51.488;5.462;2023-03-03T04:56:52;3.80;99.90
75430;DHT22;64127;51.488;5.462;2023-03-03T04:59:24;3.80;99.90
75430;DHT22;64127;51.488;5.462;2023-03-03T05:01:56;3.80;99.90
75430;DHT22;64127;51.488;5.462;2023-03-03T05:04:28;3.80;99.90
75430;DHT22;64127;51.488;5.462;2023-03-03T05:07:01;3.80;99.90
75430;DHT22;64127;51.488;5.462;2023-03-03T05:09:33;3.80;99.90
75430;DHT22;64127;51.488;5.462;2023-03-03T05:12:05;3.80;99.90
75430;DHT22;64127;51.488;5.462;2023-03-03T05:14:37;3.80;99.90
75430;DHT22;64127;51.488;5.462;2023-03-03T05:17:09;3.80;99.90
75430;DHT22;64127;51.488;5.462;2023-03-03T05:19:41;3.80;99.90
75430;DHT22;64127;51.488;5.462;2023-03-03T05:22:13;3.90;99.90
75430;DHT22;64127;51.488;5.462;2023-03-03T05:24:45;3.90;99.90
75430;DHT22;64127;51.488;5.462;2023-03-03T05:27:19;3.90;99.90
75430;DHT22;64127;51.488;5.462;2023-03-03T05:29:51;3.90;99.90
75430;DHT22;64127;51.488;5.462;2023-03-03T05:32:23;3.90;99.90
75430;DHT22;64127;51.488;5.462;2023-03-03T05:34:55;3.90;99.90
75430;DHT22;64127;51.488;5.462;2023-03-03T05:37:27;3.90;99.90
75430;DHT22;64127;51.488;5.462;2023-03-03T05:39:59;4.00;99.90
75430;DHT22;64127;51.488;5.462;2023-03-03T05:42:31;4.00;99.90
75430;DHT22;64127;51.488;5.462;2023-03-03T05:45:04;4.00;99.90
75430;DHT22;64127;51.488;5.462;2023-03-03T05:47:36;4.10;99.90
75430;DHT22;64127;51.488;5.462;2023-03-03T05:50:09;4.10;99.90
75430;DHT22;64127;51.488;5.462;2023-03-03T05:52:43;4.10;99.90
75430;DHT22;64127;51.488;5.462;2023-03-03T05:55:15;4.00;99.90
75430;DHT22;64127;51.488;5.462;2023-03-03T05:57:47;4.10;99.90
75430;DHT22;64127;51.488;5.462;2023-03-03T06:00:19;4.00;99.90
75430;DHT22;64127;51.488;5.462;2023-03-03T06:02:52;4.10;99.90
75430;DHT22;64127;51.488;5.462;2023-03-03T06:05:24;4.00;99.90
75430;DHT22;64127;51.488;5.462;2023-03-03T06:07:56;4.00;99.90
75430;DHT22;64127;51.488;5.462;2023-03-03T06:10:28;4.00;99.90
75430;DHT22;64127;51.488;5.462;2023-03-03T06:13:00;4.00;99.90
75430;DHT22;64127;51.488;5.462;2023-03-03T06:15:32;4.00;99.90
75430;DHT22;64127;51.488;5.462;2023-03-03T06:18:04;4.00;99.90
75430;DHT22;64127;51.488;5.462;2023-03-03T06:20:36;4.00;99.90
75430;DHT22;64127;51.488;5.462;2023-03-03T06:23:09;4.00;99.90
75430;DHT22;64127;51.488;5.462;2023-03-03T06:25:41;4.00;99.90
75430;DHT22;64127;51.488;5.462;2023-03-03T06:28:14;4.00;99.90
75430;DHT22;64127;51.488;5.462;2023-03-03T06:30:46;4.00;99.90
75430;DHT22;64127;51.488;5.462;2023-03-03T06:33:18;4.10;99.90
75430;DHT22;64127;51.488;5.462;2023-03-03T06:35:51;4.10;99.90
75430;DHT22;64127;51.488;5.462;2023-03-03T06:38:24;4.20;99.90
75430;DHT22;64127;51.488;5.462;2023-03-03T06:40:56;4.20;99.90
75430;DHT22;64127;51.488;5.462;2023-03-03T06:43:29;4.20;99.90
75430;DHT22;64127;51.488;5.462;2023-03-03T06:46:01;4.20;99.90
75430;DHT22;64127;51.488;5.462;2023-03-03T06:48:34;4.20;99.90
75430;DHT22;64127;51.488;5.462;2023-03-03T06:51:24;4.20;99.90
75430;DHT22;64127;51.488;5.462;2023-03-03T06:54:09;4.10;99.90
75430;DHT22;64127;51.488;5.462;2023-03-03T06:56:44;4.10;99.90
75430;DHT22;64127;51.488;5.462;2023-03-03T06:59:19;4.10;99.90
75430;DHT22;64127;51.488;5.462;2023-03-03T07:01:52;4.20;99.90
75430;DHT22;64127;51.488;5.462;2023-03-03T07:04:32;4.10;99.90
75430;DHT22;64127;51.488;5.462;2023-03-03T07:07:14;4.10;99.90
75430;DHT22;64127;51.488;5.462;2023-03-03T07:09:51;4.20;99.90
75430;DHT22;64127;51.488;5.462;2023-03-03T07:12:29;4.20;99.90
75430;DHT22;64127;51.488;5.462;2023-03-03T07:15:15;4.20;99.90
75430;DHT22;64127;51.488;5.462;2023-03-03T07:17:55;4.20;99.90
75430;DHT22;64127;51.488;5.462;2023-03-03T07:20:38;4.20;99.90
75430;DHT22;64127;51.488;5.462;2023-03-03T07:26:27;4.30;99.90
75430;DHT22;64127;51.488;5.462;2023-03-03T07:31:57;4.40;99.90
75430;DHT22;64127;51.488;5.462;2023-03-03T07:34:39;4.40;99.90
75430;DHT22;64127;51.488;5.462;2023-03-03T07:39:56;4.40;99.90
75430;DHT22;64127;51.488;5.462;2023-03-03T07:42:38;4.40;99.90
75430;DHT22;64127;51.488;5.462;2023-03-03T07:45:29;4.50;99.90
75430;DHT22;64127;51.488;5.462;2023-03-03T07:48:29;4.50;99.90
75430;DHT22;64127;51.488;5.462;2023-03-03T07:51:18;4.50;99.90
75430;DHT22;64127;51.488;5.462;2023-03-03T07:54:13;4.60;99.90
75430;DHT22;64127;51.488;5.462;2023-03-03T07:56:47;4.60;99.90
75430;DHT22;64127;51.488;5.462;2023-03-03T07:59:25;4.60;99.90
75430;DHT22;64127;51.488;5.462;2023-03-03T08:01:57;4.60;99.90
75430;DHT22;64127;51.488;5.462;2023-03-03T08:04:41;4.60;99.90
75430;DHT22;64127;51.488;5.462;2023-03-03T08:07:22;4.60;99.90
75430;DHT22;64127;51.488;5.462;2023-03-03T08:09:57;4.60;99.90
75430;DHT22;64127;51.488;5.462;2023-03-03T08:12:39;4.70;99.90
75430;DHT22;64127;51.488;5.462;2023-03-03T08:15:17;4.60;99.90
75430;DHT22;64127;51.488;5.462;2023-03-03T08:17:53;4.70;99.90
75430;DHT22;64127;51.488;5.462;2023-03-03T08:20:56;4.70;99.90
75430;DHT22;64127;51.488;5.462;2023-03-03T08:23:33;4.70;99.90
75430;DHT22;64127;51.488;5.462;2023-03-03T08:26:06;4.70;99.90
75430;DHT22;64127;51.488;5.462;2023-03-03T08:28:38;4.70;99.90
75430;DHT22;64127;51.488;5.462;2023-03-03T08:31:10;4.80;99.90
75430;DHT22;64127;51.488;5.462;2023-03-03T08:33:56;4.80;99.90
75430;DHT22;64127;51.488;5.462;2023-03-03T08:36:29;4.80;99.90
75430;DHT22;64127;51.488;5.462;2023-03-03T08:39:04;4.90;99.90
75430;DHT22;64127;51.488;5.462;2023-03-03T08:41:36;4.90;99.90
75430;DHT22;64127;51.488;5.462;2023-03-03T08:44:10;4.90;99.90
75430;DHT22;64127;51.488;5.462;2023-03-03T08:46:42;4.90;99.90
75430;DHT22;64127;51.488;5.462;2023-03-03T08:49:14;5.00;99.90
75430;DHT22;64127;51.488;5.462;2023-03-03T08:51:46;5.00;99.90
75430;DHT22;64127;51.488;5.462;2023-03-03T08:54:18;5.00;99.90
75430;DHT22;64127;51.488;5.462;2023-03-03T08:56:50;5.00;99.90
75430;DHT22;64127;51.488;5.462;2023-03-03T08:59:22;4.90;99.90
75430;DHT22;64127;51.488;5.462;2023-03-03T09:01:54;4.90;99.90
75430;DHT22;64127;51.488;5.462;2023-03-03T09:04:26;4.90;99.90
75430;DHT22;64127;51.488;5.462;2023-03-03T09:06:58;4.90;99.90
75430;DHT22;64127;51.488;5.462;2023-03-03T09:09:30;4.90;99.90
75430;DHT22;64127;51.488;5.462;2023-03-03T09:12:14;4.90;99.90
75430;DHT22;64127;51.488;5.462;2023-03-03T09:14:49;5.00;99.90
75430;DHT22;64127;51.488;5.462;2023-03-03T09:17:25;5.00;99.90
75430;DHT22;64127;51.488;5.462;2023-03-03T09:20:22;5.00;99.90
75430;DHT22;64127;51.488;5.462;2023-03-03T09:22:54;5.00;99.90
75430;DHT22;64127;51.488;5.462;2023-03-03T09:25:32;5.10;99.90
75430;DHT22;64127;51.488;5.462;2023-03-03T09:28:18;5.10;99.90
75430;DHT22;64127;51.488;5.462;2023-03-03T09:31:00;5.20;99.90
75430;DHT22;64127;51.488;5.462;2023-03-03T09:33:44;5.30;99.90
75430;DHT22;64127;51.488;5.462;2023-03-03T09:36:36;5.40;99.90
75430;DHT22;64127;51.488;5.462;2023-03-03T09:39:17;5.40;99.90
75430;DHT22;64127;51.488;5.462;2023-03-03T09:47:40;5.50;99.90
75430;DHT22;64127;51.488;5.462;2023-03-03T09:53:56;5.50;99.90
75430;DHT22;64127;51.488;5.462;2023-03-03T09:56:48;5.60;99.90
75430;DHT22;64127;51.488;5.462;2023-03-03T09:59:39;5.70;99.90
75430;DHT22;64127;51.488;5.462;2023-03-03T10:11:49;5.90;99.90
75430;DHT22;64127;51.488;5.462;2023-03-03T10:20:43;5.90;99.90
75430;DHT22;64127;51.488;5.462;2023-03-03T10:44:05;6.20;99.90
75430;DHT22;64127;51.488;5.462;2023-03-03T10:52:36;6.40;99.90
75430;DHT22;64127;51.488;5.462;2023-03-03T11:01:22;6.70;99.90
75430;DHT22;64127;51.488;5.462;2023-03-03T11:04:41;6.80;99.90
75430;DHT22;64127;51.488;5.462;2023-03-03T11:07:41;6.90;99.90
75430;DHT22;64127;51.488;5.462;2023-03-03T11:19:11;7.20;99.70
75430;DHT22;64127;51.488;5.462;2023-03-03T11:22:37;7.30;99.50
75430;DHT22;64127;51.488;5.462;2023-03-03T11:28:07;7.40;99.30
75430;DHT22;64127;51.488;5.462;2023-03-03T11:37:38;7.50;99.10
75430;DHT22;64127;51.488;5.462;2023-03-03T11:40:20;7.70;98.90
75430;DHT22;64127;51.488;5.462;2023-03-03T11:43:04;7.80;98.70
75430;DHT22;64127;51.488;5.462;2023-03-03T11:46:02;7.90;98.40
75430;DHT22;64127;51.488;5.462;2023-03-03T11:55:22;8.20;98.00
75430;DHT22;64127;51.488;5.462;2023-03-03T11:58:07;8.40;97.90
75430;DHT22;64127;51.488;5.462;2023-03-03T12:00:58;8.70;97.70
75430;DHT22;64127;51.488;5.462;2023-03-03T12:07:27;9.60;96.70
75430;DHT22;64127;51.488;5.462;2023-03-03T12:10:26;10.00;95.40
75430;DHT22;64127;51.488;5.462;2023-03-03T12:14:20;10.30;94.70
75430;DHT22;64127;51.488;5.462;2023-03-03T12:16:39;10.60;94.20
75430;DHT22;64127;51.488;5.462;2023-03-03T12:25:42;11.20;92.90
75430;DHT22;64127;51.488;5.462;2023-03-03T12:32:02;11.50;92.00
75430;DHT22;64127;51.488;5.462;2023-03-03T12:38:13;11.80;91.20
75430;DHT22;64127;51.488;5.462;2023-03-03T12:44:17;11.70;90.70
75430;DHT22;64127;51.488;5.462;2023-03-03T12:47:02;11.50;90.60
75430;DHT22;64127;51.488;5.462;2023-03-03T12:49:56;11.50;90.80
75430;DHT22;64127;51.488;5.462;2023-03-03T12:53:24;11.60;90.50
75430;DHT22;64127;51.488;5.462;2023-03-03T12:55:54;11.70;90.20
75430;DHT22;64127;51.488;5.462;2023-03-03T12:58:36;11.90;89.80
75430;DHT22;64127;51.488;5.462;2023-03-03T13:01:42;12.00;89.00
75430;DHT22;64127;51.488;5.462;2023-03-03T13:05:10;12.20;88.00
75430;DHT22;64127;51.488;5.462;2023-03-03T13:13:39;12.30;86.40
75430;DHT22;64127;51.488;5.462;2023-03-03T13:16:23;12.10;86.60
75430;DHT22;64127;51.488;5.462;2023-03-03T13:19:36;12.00;86.90
75430;DHT22;64127;51.488;5.462;2023-03-03T13:27:58;12.60;85.10
75430;DHT22;64127;51.488;5.462;2023-03-03T13:30:37;12.90;84.20
75430;DHT22;64127;51.488;5.462;2023-03-03T13:33:34;13.10;83.30
75430;DHT22;64127;51.488;5.462;2023-03-03T13:36:12;13.30;82.10
75430;DHT22;64127;51.488;5.462;2023-03-03T13:38:55;13.50;81.60
75430;DHT22;64127;51.488;5.462;2023-03-03T13:41:44;13.70;80.50
75430;DHT22;64127;51.488;5.462;2023-03-03T13:44:41;13.90;79.80
75430;DHT22;64127;51.488;5.462;2023-03-03T13:50:26;14.20;78.60
75430;DHT22;64127;51.488;5.462;2023-03-03T13:53:57;14.20;77.80
75430;DHT22;64127;51.488;5.462;2023-03-03T14:06:36;14.20;77.50
75430;DHT22;64127;51.488;5.462;2023-03-03T14:10:17;14.50;77.30
75430;DHT22;64127;51.488;5.462;2023-03-03T14:16:02;15.00;74.60
75430;DHT22;64127;51.488;5.462;2023-03-03T14:19:03;15.00;73.50
75430;DHT22;64127;51.488;5.462;2023-03-03T14:21:52;14.80;73.00
75430;DHT22;64127;51.488;5.462;2023-03-03T14:24:55;14.70;72.90
75430;DHT22;64127;51.488;5.462;2023-03-03T14:35:43;13.50;74.00
75430;DHT22;64127;51.488;5.462;2023-03-03T14:46:36;12.50;75.50
75430;DHT22;64127;51.488;5.462;2023-03-03T14:49:28;12.40;75.80
75430;DHT22;64127;51.488;5.462;2023-03-03T14:54:54;12.10;76.30
75430;DHT22;64127;51.488;5.462;2023-03-03T14:57:41;12.10;76.80
75430;DHT22;64127;51.488;5.462;2023-03-03T15:03:16;12.10;77.00
75430;DHT22;64127;51.488;5.462;2023-03-03T15:05:56;12.10;76.80
75430;DHT22;64127;51.488;5.462;2023-03-03T15:08:32;12.00;76.90
75430;DHT22;64127;51.488;5.462;2023-03-03T15:11:33;12.00;76.90
75430;DHT22;64127;51.488;5.462;2023-03-03T15:14:18;11.90;76.90
75430;DHT22;64127;51.488;5.462;2023-03-03T15:16:51;11.80;77.90
75430;DHT22;64127;51.488;5.462;2023-03-03T15:19:50;11.70;77.40
75430;DHT22;64127;51.488;5.462;2023-03-03T15:29:07;11.40;78.50
75430;DHT22;64127;51.488;5.462;2023-03-03T15:50:03;13.50;74.40
75430;DHT22;64127;51.488;5.462;2023-03-03T15:52:41;14.50;71.80
75430;DHT22;64127;51.488;5.462;2023-03-03T16:04:07;17.30;64.30
75430;DHT22;64127;51.488;5.462;2023-03-03T16:10:06;17.50;61.40
75430;DHT22;64127;51.488;5.462;2023-03-03T16:13:26;16.40;62.00
75430;DHT22;64127;51.488;5.462;2023-03-03T16:16:42;15.40;63.30
75430;DHT22;64127;51.488;5.462;2023-03-03T16:22:32;14.10;65.70
75430;DHT22;64127;51.488;5.462;2023-03-03T16:28:03;13.90;66.50
75430;DHT22;64127;51.488;5.462;2023-03-03T16:33:43;13.60;66.30
75430;DHT22;64127;51.488;5.462;2023-03-03T16:36:42;13.10;66.90
75430;DHT22;64127;51.488;5.462;2023-03-03T16:42:28;12.20;68.60
75430;DHT22;64127;51.488;5.462;2023-03-03T16:45:08;11.90;69.10
75430;DHT22;64127;51.488;5.462;2023-03-03T16:56:28;11.20;71.60
75430;DHT22;64127;51.488;5.462;2023-03-03T16:59:35;11.00;71.90
75430;DHT22;64127;51.488;5.462;2023-03-03T17:02:39;10.90;72.50
75430;DHT22;64127;51.488;5.462;2023-03-03T17:08:11;10.80;73.30
75430;DHT22;64127;51.488;5.462;2023-03-03T17:11:04;10.80;73.50
75430;DHT22;64127;51.488;5.462;2023-03-03T17:14:09;10.70;74.00
75430;DHT22;64127;51.488;5.462;2023-03-03T17:16:59;10.60;74.20
75430;DHT22;64127;51.488;5.462;2023-03-03T17:19:52;10.60;74.60
75430;DHT22;64127;51.488;5.462;2023-03-03T17:25:20;10.50;75.20
75430;DHT22;64127;51.488;5.462;2023-03-03T17:33:59;10.40;76.10
75430;DHT22;64127;51.488;5.462;2023-03-03T17:40:07;10.30;77.30
75430;DHT22;64127;51.488;5.462;2023-03-03T17:45:54;10.20;77.70
75430;DHT22;64127;51.488;5.462;2023-03-03T17:48:57;10.20;77.90
75430;DHT22;64127;51.488;5.462;2023-03-03T17:52:07;10.10;78.10
75430;DHT22;64127;51.488;5.462;2023-03-03T18:15:43;9.80;80.00
75430;DHT22;64127;51.488;5.462;2023-03-03T18:21:48;9.70;80.20
75430;DHT22;64127;51.488;5.462;2023-03-03T18:38:24;9.60;80.50
75430;DHT22;64127;51.488;5.462;2023-03-03T18:43:48;9.60;80.60
75430;DHT22;64127;51.488;5.462;2023-03-03T18:49:13;9.50;80.80
75430;DHT22;64127;51.488;5.462;2023-03-03T18:51:48;9.40;81.10
75430;DHT22;64127;51.488;5.462;2023-03-03T18:54:24;9.40;81.20
75430;DHT22;64127;51.488;5.462;2023-03-03T18:57:13;9.30;81.10
75430;DHT22;64127;51.488;5.462;2023-03-03T18:59:52;9.30;81.30
75430;DHT22;64127;51.488;5.462;2023-03-03T19:02:36;9.30;81.40
75430;DHT22;64127;51.488;5.462;2023-03-03T19:10:58;9.10;81.70
75430;DHT22;64127;51.488;5.462;2023-03-03T19:16:09;9.10;81.80
75430;DHT22;64127;51.488;5.462;2023-03-03T19:19:00;9.10;81.90
75430;DHT22;64127;51.488;5.462;2023-03-03T19:21:37;9.10;81.90
75430;DHT22;64127;51.488;5.462;2023-03-03T19:24:32;9.10;82.00
75430;DHT22;64127;51.488;5.462;2023-03-03T19:33:52;9.10;82.00
75430;DHT22;64127;51.488;5.462;2023-03-03T19:42:37;9.10;82.10
75430;DHT22;64127;51.488;5.462;2023-03-03T19:48:35;9.10;82.90
75430;DHT22;64127;51.488;5.462;2023-03-03T20:00:41;9.00;83.20
75430;DHT22;64127;51.488;5.462;2023-03-03T20:12:23;9.00;82.60
75430;DHT22;64127;51.488;5.462;2023-03-03T20:15:40;8.90;82.50
75430;DHT22;64127;51.488;5.462;2023-03-03T20:25:01;8.90;82.80
75430;DHT22;64127;51.488;5.462;2023-03-03T20:27:50;8.90;83.00
75430;DHT22;64127;51.488;5.462;2023-03-03T20:40:15;8.90;83.30
75430;DHT22;64127;51.488;5.462;2023-03-03T20:43:22;8.90;83.30
75430;DHT22;64127;51.488;5.462;2023-03-03T20:50:06;8.80;83.70
75430;DHT22;64127;51.488;5.462;2023-03-03T21:04:41;8.70;84.10
75430;DHT22;64127;51.488;5.462;2023-03-03T21:07:24;8.70;84.20
75430;DHT22;64127;51.488;5.462;2023-03-03T21:10:16;8.70;84.50
75430;DHT22;64127;51.488;5.462;2023-03-03T21:12:57;8.70;84.60
75430;DHT22;64127;51.488;5.462;2023-03-03T21:15:59;8.70;84.60
75430;DHT22;64127;51.488;5.462;2023-03-03T21:19:05;8.70;84.70
75430;DHT22;64127;51.488;5.462;2023-03-03T21:21:41;8.70;84.90
75430;DHT22;64127;51.488;5.462;2023-03-03T21:24:17;8.70;84.90
75430;DHT22;64127;51.488;5.462;2023-03-03T21:26:59;8.70;84.40
75430;DHT22;64127;51.488;5.462;2023-03-03T21:29:33;8.60;85.20
75430;DHT22;64127;51.488;5.462;2023-03-03T21:32:07;8.60;85.40
75430;DHT22;64127;51.488;5.462;2023-03-03T21:34:41;8.60;85.70
75430;DHT22;64127;51.488;5.462;2023-03-03T21:37:14;8.60;85.80
75430;DHT22;64127;51.488;5.462;2023-03-03T21:40:18;8.60;86.00
75430;DHT22;64127;51.488;5.462;2023-03-03T21:42:56;8.50;86.00
75430;DHT22;64127;51.488;5.462;2023-03-03T21:45:32;8.50;86.20
75430;DHT22;64127;51.488;5.462;2023-03-03T21:48:04;8.50;86.40
75430;DHT22;64127;51.488;5.462;2023-03-03T21:50:36;8.50;86.50
75430;DHT22;64127;51.488;5.462;2023-03-03T21:53:11;8.50;86.60
75430;DHT22;64127;51.488;5.462;2023-03-03T21:55:43;8.50;86.80
75430;DHT22;64127;51.488;5.462;2023-03-03T21:58:19;8.50;86.90
75430;DHT22;64127;51.488;5.462;2023-03-03T22:00:51;8.50;87.00
75430;DHT22;64127;51.488;5.462;2023-03-03T22:03:23;8.50;87.20
75430;DHT22;64127;51.488;5.462;2023-03-03T22:05:55;8.50;87.30
75430;DHT22;64127;51.488;5.462;2023-03-03T22:08:28;8.50;87.50
75430;DHT22;64127;51.488;5.462;2023-03-03T22:11:00;8.50;87.70
75430;DHT22;64127;51.488;5.462;2023-03-03T22:13:32;8.50;87.90
75430;DHT22;64127;51.488;5.462;2023-03-03T22:16:04;8.50;88.10
75430;DHT22;64127;51.488;5.462;2023-03-03T22:18:38;8.50;88.30
75430;DHT22;64127;51.488;5.462;2023-03-03T22:21:10;8.50;88.20
75430;DHT22;64127;51.488;5.462;2023-03-03T22:23:42;8.50;88.20
75430;DHT22;64127;51.488;5.462;2023-03-03T22:26:14;8.50;88.20
75430;DHT22;64127;51.488;5.462;2023-03-03T22:28:47;8.50;88.30
75430;DHT22;64127;51.488;5.462;2023-03-03T22:31:20;8.50;88.70
75430;DHT22;64127;51.488;5.462;2023-03-03T22:33:52;8.50;88.70
75430;DHT22;64127;51.488;5.462;2023-03-03T22:36:24;8.50;88.70
75430;DHT22;64127;51.488;5.462;2023-03-03T22:38:56;8.40;88.70
75430;DHT22;64127;51.488;5.462;2023-03-03T22:41:28;8.40;89.00
75430;DHT22;64127;51.488;5.462;2023-03-03T22:44:00;8.40;89.20
75430;DHT22;64127;51.488;5.462;2023-03-03T22:46:32;8.50;89.40
75430;DHT22;64127;51.488;5.462;2023-03-03T22:49:04;8.40;89.40
75430;DHT22;64127;51.488;5.462;2023-03-03T22:51:36;8.50;89.60
75430;DHT22;64127;51.488;5.462;2023-03-03T22:54:08;8.40;89.60
75430;DHT22;64127;51.488;5.462;2023-03-03T22:56:40;8.40;89.60
75430;DHT22;64127;51.488;5.462;2023-03-03T22:59:12;8.30;89.70
75430;DHT22;64127;51.488;5.462;2023-03-03T23:01:44;8.30;89.90
75430;DHT22;64127;51.488;5.462;2023-03-03T23:04:16;8.20;90.00
75430;DHT22;64127;51.488;5.462;2023-03-03T23:06:48;8.20;90.20
75430;DHT22;64127;51.488;5.462;2023-03-03T23:09:20;8.30;90.20
75430;DHT22;64127;51.488;5.462;2023-03-03T23:11:52;8.30;90.30
75430;DHT22;64127;51.488;5.462;2023-03-03T23:14:24;8.30;90.30